Time;durP1;ratioP1;P1;durP2;ratioP2;P2;SDS_P1;SDS_P2;PMS_P1;PMS_P2;Temp;Humidity;BMP_temperature;BMP_pressure;BME280_temperature;BME280_humidity;BME280_pressure;Samples;Min_cycle;Max_cycle;Signal;HPM_P1;HPM_P2
2022/06/29 00:01:57;;;;;;;13.45;7.53;;;;;;;17.12;70.41;101519.81;5042016;28;20382;-71
2022/06/29 00:04:22;;;;;;;10.30;8.27;;;;;;;17.10;69.75;101524.81;5044468;28;20065;-70
2022/06/29 00:06:48;;;;;;;12.07;8.48;;;;;;;17.04;70.51;101526.69;5044520;28;20029;-71
2022/06/29 00:09:13;;;;;;;11.43;7.72;;;;;;;16.98;71.52;101527.72;5043611;28;20037;-71
2022/06/29 00:11:38;;;;;;;13.80;7.85;;;;;;;16.91;72.40;101524.28;5045936;28;20021;-71
2022/06/29 00:14:04;;;;;;;9.88;8.45;;;;;;;16.84;72.97;101529.19;5043254;28;20116;-71
2022/06/29 00:16:29;;;;;;;11.07;8.20;;;;;;;16.79;72.88;101524.38;5043463;28;20362;-70
2022/06/29 00:18:55;;;;;;;14.00;8.73;;;;;;;16.71;72.91;101522.03;5045227;28;20047;-71
2022/06/29 00:21:20;;;;;;;13.27;8.52;;;;;;;16.61;74.45;101517.16;5044985;28;20079;-70
2022/06/29 00:23:45;;;;;;;14.15;8.77;;;;;;;16.55;73.11;101517.34;5044204;28;20119;-70
2022/06/29 00:26:10;;;;;;;9.70;8.48;;;;;;;16.49;73.60;101529.44;5041734;28;20032;-70
2022/06/29 00:28:36;;;;;;;12.95;8.88;;;;;;;16.39;74.82;101519.03;5046094;28;20108;-71
2022/06/29 00:31:01;;;;;;;13.02;9.68;;;;;;;16.34;75.04;101518.97;5041218;28;20036;-70
2022/06/29 00:33:26;;;;;;;14.48;8.80;;;;;;;16.37;74.14;101518.44;5043944;28;20108;-71
2022/06/29 00:35:51;;;;;;;10.50;9.25;;;;;;;16.33;74.38;101515.34;5043365;28;20127;-68
2022/06/29 00:38:17;;;;;;;11.95;9.05;;;;;;;16.34;73.99;101510.63;5042830;28;20087;-71
2022/06/29 00:40:42;;;;;;;12.07;9.50;;;;;;;16.29;75.40;101507.78;5041478;28;20371;-71
2022/06/29 00:43:08;;;;;;;15.63;9.68;;;;;;;16.24;74.37;101507.72;5035549;28;20117;-71
2022/06/29 00:45:33;;;;;;;13.02;9.95;;;;;;;16.21;74.86;101503.50;5043439;28;20111;-71
2022/06/29 00:47:58;;;;;;;11.15;9.15;;;;;;;16.17;75.81;101498.69;5043083;28;20059;-70
2022/06/29 00:50:30;;;;;;;13.93;10.50;;;;;;;16.14;75.66;101504.78;5043778;28;20470;-70
2022/06/29 00:53:00;;;;;;;14.05;10.52;;;;;;;16.06;76.03;101503.22;5042975;28;20037;-71
2022/06/29 00:55:29;;;;;;;13.32;9.55;;;;;;;16.07;75.62;101500.22;5043274;28;20052;-70
2022/06/29 00:57:57;;;;;;;11.93;10.13;;;;;;;16.02;76.35;101494.59;5043209;28;20550;-70
2022/06/29 01:00:23;;;;;;;16.40;11.10;;;;;;;15.96;77.00;101498.34;5043391;28;20397;-70
2022/06/29 01:02:48;;;;;;;13.32;10.88;;;;;;;15.92;77.92;101496.38;5045428;28;20033;-70
2022/06/29 01:05:14;;;;;;;13.18;11.10;;;;;;;15.81;77.88;101493.41;5043161;28;20041;-70
2022/06/29 01:07:39;;;;;;;12.25;10.70;;;;;;;15.82;78.46;101486.78;5041622;28;20037;-71
2022/06/29 01:10:05;;;;;;;13.73;11.13;;;;;;;15.72;78.35;101486.59;5044523;28;20511;-71
2022/06/29 01:12:31;;;;;;;14.70;11.13;;;;;;;15.74;78.12;101481.66;5044767;28;20389;-70
2022/06/29 01:14:56;;;;;;;14.32;11.98;;;;;;;15.70;77.96;101479.63;5042555;28;20516;-71
2022/06/29 01:17:23;;;;;;;14.93;11.77;;;;;;;15.67;78.56;101480.13;5042274;28;20032;-70
2022/06/29 01:19:48;;;;;;;15.48;12.05;;;;;;;15.65;78.65;101493.38;5043737;28;20017;-71
2022/06/29 01:22:15;;;;;;;14.20;12.10;;;;;;;15.57;79.42;101495.44;5046237;28;20040;-71
2022/06/29 01:24:44;;;;;;;15.73;12.63;;;;;;;15.55;78.97;101491.22;5047502;28;20063;-71
2022/06/29 01:27:10;;;;;;;14.30;12.05;;;;;;;15.55;78.83;101494.81;5047537;28;20033;-71
2022/06/29 01:29:35;;;;;;;15.63;12.70;;;;;;;15.53;79.63;101487.88;5048112;28;20082;-71
2022/06/29 01:32:01;;;;;;;14.75;12.27;;;;;;;15.54;79.05;101487.63;5047637;28;20029;-70
2022/06/29 01:34:28;;;;;;;15.93;12.93;;;;;;;15.51;79.50;101492.78;5048105;28;20024;-70
2022/06/29 01:36:54;;;;;;;15.43;13.77;;;;;;;15.52;80.01;101477.88;5048072;28;20075;-71
2022/06/29 01:39:19;;;;;;;16.63;14.15;;;;;;;15.50;78.90;101475.34;5045396;28;20033;-71
2022/06/29 01:41:44;;;;;;;15.10;13.25;;;;;;;15.47;78.90;101473.09;5044887;28;20619;-71
2022/06/29 01:44:10;;;;;;;18.80;14.07;;;;;;;15.46;79.17;101474.19;5045943;28;20094;-71
2022/06/29 01:46:35;;;;;;;17.13;13.75;;;;;;;15.45;78.94;101474.41;5046384;28;20445;-71
2022/06/29 01:49:01;;;;;;;17.60;14.00;;;;;;;15.41;79.00;101471.31;5046051;28;20390;-71
2022/06/29 01:51:26;;;;;;;18.98;14.13;;;;;;;15.41;79.67;101473.22;5037690;28;20048;-70
2022/06/29 01:53:52;;;;;;;16.20;13.70;;;;;;;15.41;79.35;101467.69;5039040;28;20037;-69
2022/06/29 01:56:17;;;;;;;17.08;13.75;;;;;;;15.35;79.99;101468.69;5046678;28;20834;-71
2022/06/29 01:58:43;;;;;;;16.77;14.00;;;;;;;15.30;79.97;101466.66;5045853;28;20091;-70
2022/06/29 02:01:08;;;;;;;16.20;14.00;;;;;;;15.27;80.91;101467.16;5045872;28;20393;-71
2022/06/29 02:03:33;;;;;;;17.85;13.77;;;;;;;15.27;81.43;101458.88;5047447;28;20079;-72
2022/06/29 02:05:59;;;;;;;16.75;14.25;;;;;;;15.22;81.56;101459.59;5045488;28;20474;-71
2022/06/29 02:08:24;;;;;;;16.35;14.65;;;;;;;15.16;81.19;101454.22;5048565;28;20036;-71
2022/06/29 02:10:49;;;;;;;17.13;14.52;;;;;;;15.11;80.98;101462.44;5046946;28;20021;-71
2022/06/29 02:13:15;;;;;;;16.10;14.50;;;;;;;15.07;81.78;101456.53;5045979;28;20025;-71
2022/06/29 02:15:40;;;;;;;19.95;15.15;;;;;;;15.05;82.34;101458.69;5044326;28;20025;-71
2022/06/29 02:18:06;;;;;;;15.13;13.63;;;;;;;15.03;82.53;101458.09;5032518;28;20033;-71
2022/06/29 02:20:31;;;;;;;17.08;15.13;;;;;;;14.98;81.75;101464.38;5048225;28;20382;-71
2022/06/29 02:22:56;;;;;;;18.60;15.00;;;;;;;14.95;82.16;101464.00;5044566;28;20037;-71
2022/06/29 02:25:21;;;;;;;17.40;15.57;;;;;;;14.95;81.74;101462.09;5037175;28;20044;-70
2022/06/29 02:27:47;;;;;;;16.77;14.88;;;;;;;14.94;82.00;101460.41;5046917;28;20037;-71
2022/06/29 02:30:14;;;;;;;17.20;15.48;;;;;;;14.96;81.87;101458.25;5044684;28;20362;-71
2022/06/29 02:35:25;;;;;;;17.35;15.57;;;;;;;15.02;82.16;101460.03;5045811;28;20097;-71
2022/06/29 02:37:50;;;;;;;18.55;16.60;;;;;;;15.08;83.66;101460.13;5043014;28;20446;-71
2022/06/29 02:40:15;;;;;;;19.65;16.95;;;;;;;15.09;82.01;101453.50;5045854;28;20024;-70
2022/06/29 02:42:41;;;;;;;20.15;18.13;;;;;;;15.08;81.37;101454.59;5044547;28;20061;-71
2022/06/29 02:45:06;;;;;;;19.17;17.38;;;;;;;15.09;81.28;101451.56;5043738;28;20032;-71
2022/06/29 02:47:31;;;;;;;20.27;17.15;;;;;;;15.07;82.02;101445.47;5045550;28;20039;-71
2022/06/29 02:49:57;;;;;;;19.92;17.30;;;;;;;15.07;82.71;101452.94;5046076;28;20128;-71
2022/06/29 02:52:22;;;;;;;21.30;17.42;;;;;;;15.04;82.71;101452.31;5044911;28;20065;-71
2022/06/29 02:54:47;;;;;;;20.65;17.10;;;;;;;15.07;83.31;101451.00;5045746;28;20033;-71
2022/06/29 02:57:13;;;;;;;19.17;17.33;;;;;;;15.08;82.85;101447.13;5047180;28;20078;-71
2022/06/29 02:59:38;;;;;;;21.27;18.00;;;;;;;15.07;81.78;101441.88;5046873;28;20028;-71
2022/06/29 03:02:03;;;;;;;20.30;18.08;;;;;;;15.07;82.03;101441.88;5045563;28;20029;-71
2022/06/29 03:04:29;;;;;;;21.13;18.85;;;;;;;15.02;82.40;101437.91;5047469;28;20033;-70
2022/06/29 03:06:55;;;;;;;20.58;18.48;;;;;;;15.01;83.46;101436.22;5044962;28;20489;-71
2022/06/29 03:09:20;;;;;;;21.45;19.25;;;;;;;14.95;83.23;101436.34;5042265;28;20044;-71
2022/06/29 03:11:45;;;;;;;21.52;18.17;;;;;;;14.92;82.42;101442.38;5048147;28;20028;-71
2022/06/29 03:14:11;;;;;;;20.40;17.77;;;;;;;14.83;83.44;101436.41;5045119;28;20544;-70
2022/06/29 03:16:37;;;;;;;19.55;17.65;;;;;;;14.78;82.97;101428.81;5046506;28;20036;-71
2022/06/29 03:19:02;;;;;;;21.10;17.45;;;;;;;14.76;84.46;101431.00;5045354;28;20116;-71
2022/06/29 03:21:27;;;;;;;21.85;19.80;;;;;;;14.70;84.47;101433.88;5044324;28;20020;-70
2022/06/29 03:23:53;;;;;;;20.70;18.55;;;;;;;14.68;84.30;101427.78;5045897;28;20385;-71
2022/06/29 03:26:18;;;;;;;21.38;18.75;;;;;;;14.69;85.01;101426.69;5046777;28;20028;-71
2022/06/29 03:28:43;;;;;;;20.40;18.40;;;;;;;14.70;84.77;101412.63;5046320;28;20041;-71
2022/06/29 03:31:09;;;;;;;20.98;18.70;;;;;;;14.75;84.00;101409.97;5039884;28;20028;-71
2022/06/29 03:33:34;;;;;;;20.95;18.77;;;;;;;14.77;85.70;101412.50;5044075;28;20104;-71
2022/06/29 03:35:59;;;;;;;21.55;19.17;;;;;;;14.76;85.36;101414.41;5038523;28;20029;-71
2022/06/29 03:38:24;;;;;;;22.55;19.45;;;;;;;14.76;84.61;101405.28;5046009;28;20041;-71
2022/06/29 03:40:51;;;;;;;21.42;19.33;;;;;;;14.73;84.06;101398.31;5039729;28;20031;-71
2022/06/29 03:43:17;;;;;;;21.63;19.10;;;;;;;14.75;84.21;101404.44;5046841;28;20071;-71
2022/06/29 03:45:42;;;;;;;22.42;20.05;;;;;;;14.74;85.38;101408.28;5042171;28;20457;-67
2022/06/29 03:48:08;;;;;;;21.58;19.42;;;;;;;14.71;85.77;101405.19;5042510;28;20115;-70
2022/06/29 03:50:34;;;;;;;23.08;19.85;;;;;;;14.66;84.07;101397.63;5040782;28;20040;-69
2022/06/29 03:52:59;;;;;;;23.33;20.85;;;;;;;14.68;84.09;101394.59;5044761;28;20080;-71
2022/06/29 03:55:24;;;;;;;22.38;20.17;;;;;;;14.63;85.31;101394.50;5043474;28;20024;-71
2022/06/29 03:57:50;;;;;;;22.58;20.23;;;;;;;14.66;85.96;101396.78;5046443;28;20036;-71
2022/06/29 04:00:15;;;;;;;23.38;20.48;;;;;;;14.61;85.83;101407.72;5044830;28;20029;-71
2022/06/29 04:02:41;;;;;;;22.13;19.83;;;;;;;14.58;86.08;101391.63;5046624;28;20486;-71
2022/06/29 04:05:07;;;;;;;24.40;21.52;;;;;;;14.60;86.48;101386.66;5044177;28;20025;-70
2022/06/29 04:07:33;;;;;;;23.55;20.58;;;;;;;14.63;87.61;101391.72;5043958;28;20029;-71
2022/06/29 04:10:01;;;;;;;23.50;21.20;;;;;;;14.61;85.68;101382.84;5045676;28;20033;-71
2022/06/29 04:12:29;;;;;;;;;;;;;;;14.75;84.41;101387.00;5047230;28;20032;-71
2022/06/29 04:14:54;;;;;;;;;;;;;;;14.76;83.45;101395.06;5043340;28;19963;-70
2022/06/29 04:17:19;;;;;;;24.90;22.43;;;;;;;14.63;85.71;101388.97;5044255;28;20344;-71
2022/06/29 04:19:45;;;;;;;25.45;22.90;;;;;;;14.62;86.96;101384.53;5043891;28;20783;-70
2022/06/29 04:22:10;;;;;;;24.35;21.90;;;;;;;14.64;86.35;101394.22;5044204;28;20706;-71
2022/06/29 04:24:35;;;;;;;28.45;23.38;;;;;;;14.63;85.88;101391.72;5045520;28;20025;-70
2022/06/29 04:27:01;;;;;;;27.10;22.67;;;;;;;14.69;86.82;101401.81;5045682;28;20021;-72
2022/06/29 04:29:26;;;;;;;26.70;22.38;;;;;;;14.73;87.30;101395.53;5046089;28;20029;-70
2022/06/29 04:31:51;;;;;;;25.25;22.58;;;;;;;14.82;86.96;101393.25;5043379;28;20389;-70
2022/06/29 04:34:17;;;;;;;29.05;23.02;;;;;;;14.87;87.81;101389.75;5043033;28;20075;-71
2022/06/29 04:36:42;;;;;;;25.00;22.48;;;;;;;14.90;87.65;101383.69;5041398;28;20013;-69
2022/06/29 04:39:07;;;;;;;26.02;22.80;;;;;;;14.97;86.22;101379.72;5046251;28;20036;-70
2022/06/29 04:41:33;;;;;;;28.40;23.13;;;;;;;15.00;86.94;101379.22;5045638;28;20028;-71
2022/06/29 04:43:58;;;;;;;29.50;24.65;;;;;;;14.97;86.70;101378.88;5042608;28;20040;-71
2022/06/29 04:46:23;;;;;;;26.23;23.48;;;;;;;14.98;86.95;101381.38;5044019;28;20033;-70
2022/06/29 04:48:56;;;;;;;27.92;25.20;;;;;;;15.00;88.15;101382.00;5043869;28;20402;-71
2022/06/29 04:51:22;;;;;;;28.42;25.00;;;;;;;15.04;87.75;101382.31;5040322;28;20064;-70
2022/06/29 04:53:48;;;;;;;29.80;26.70;;;;;;;15.07;87.98;101379.06;5039872;28;20124;-71
2022/06/29 04:56:15;;;;;;;30.52;26.85;;;;;;;15.17;86.71;101389.50;5042909;28;20402;-71
2022/06/29 04:58:40;;;;;;;32.30;28.67;;;;;;;15.24;84.48;101387.41;5047570;28;20029;-71
2022/06/29 05:01:06;;;;;;;33.40;29.60;;;;;;;15.36;83.73;101382.66;5047485;28;20029;-70
2022/06/29 05:03:32;;;;;;;34.75;29.63;;;;;;;15.43;83.57;101382.50;5049574;28;20298;-70
2022/06/29 05:05:57;;;;;;;38.47;30.80;;;;;;;15.52;83.83;101381.81;5046956;28;20540;-71
2022/06/29 05:08:22;;;;;;;37.70;30.45;;;;;;;15.55;83.24;101383.25;5046945;28;20039;-71
2022/06/29 05:10:48;;;;;;;35.60;30.10;;;;;;;15.64;83.02;101378.16;5048747;28;20021;-70
2022/06/29 05:13:13;;;;;;;38.03;28.77;;;;;;;15.68;83.35;101377.41;5047615;28;20025;-71
2022/06/29 05:15:38;;;;;;;34.38;28.92;;;;;;;15.70;82.48;101378.00;5045717;28;20040;-71
2022/06/29 05:18:04;;;;;;;30.40;27.13;;;;;;;15.74;83.79;101370.84;5048771;28;20024;-70
2022/06/29 05:20:30;;;;;;;31.65;27.15;;;;;;;15.78;82.53;101362.91;5045160;28;20041;-71
2022/06/29 05:22:55;;;;;;;35.65;26.38;;;;;;;15.77;82.84;101364.81;5047245;28;20033;-70
2022/06/29 05:25:21;;;;;;;32.00;27.48;;;;;;;15.79;84.35;101361.78;5047384;28;20072;-70
2022/06/29 05:27:46;;;;;;;33.53;26.30;;;;;;;15.83;82.56;101361.03;5047078;28;20026;-71
2022/06/29 05:30:13;;;;;;;33.35;26.15;;;;;;;15.89;81.81;101361.97;5044244;28;20032;-71
2022/06/29 05:32:38;;;;;;;34.58;26.52;;;;;;;15.92;82.26;101358.69;5047361;28;20432;-72
2022/06/29 05:35:04;;;;;;;34.30;26.73;;;;;;;15.99;81.62;101361.28;5045659;28;20037;-67
2022/06/29 05:37:30;;;;;;;28.40;25.25;;;;;;;16.05;81.76;101357.47;5048275;28;20122;-70
2022/06/29 05:39:55;;;;;;;34.95;27.20;;;;;;;16.06;82.67;101359.97;5046247;28;20067;-71
2022/06/29 05:42:21;;;;;;;29.13;25.98;;;;;;;16.27;81.01;101363.03;5048505;28;20417;-70
2022/06/29 05:44:46;;;;;;;31.10;26.83;;;;;;;16.34;81.36;101360.94;5048347;28;20040;-70
2022/06/29 05:47:14;;;;;;;34.05;27.05;;;;;;;16.43;80.93;101348.31;5047531;28;20648;-70
2022/06/29 05:49:39;;;;;;;29.08;26.00;;;;;;;16.51;80.70;101352.56;5043882;28;20094;-70
2022/06/29 05:52:04;;;;;;;28.60;25.60;;;;;;;16.61;80.45;101356.28;5045842;28;20493;-71
2022/06/29 05:54:30;;;;;;;28.05;23.13;;;;;;;16.72;79.43;101353.69;5048699;28;20053;-70
2022/06/29 05:56:55;;;;;;;28.35;23.80;;;;;;;16.77;81.15;101362.88;5045891;28;20021;-69
2022/06/29 05:59:20;;;;;;;32.30;24.77;;;;;;;16.88;79.74;101354.69;5048456;28;20036;-71
2022/06/29 06:01:46;;;;;;;26.20;23.38;;;;;;;16.95;80.54;101367.28;5046008;28;20067;-71
2022/06/29 06:04:11;;;;;;;27.40;22.50;;;;;;;16.95;80.67;101364.50;5048136;28;20090;-70
2022/06/29 06:06:36;;;;;;;26.33;23.60;;;;;;;16.98;81.83;101364.00;5045702;28;20021;-70
2022/06/29 06:09:02;;;;;;;24.15;21.48;;;;;;;17.08;80.57;101363.22;5044889;28;20130;-71
2022/06/29 06:11:27;;;;;;;24.80;20.13;;;;;;;17.20;79.30;101363.94;5034351;28;20021;-70
2022/06/29 06:13:52;;;;;;;22.30;19.42;;;;;;;17.32;79.41;101360.97;5047293;28;20446;-69
2022/06/29 06:16:17;;;;;;;23.27;19.90;;;;;;;17.37;79.21;101363.81;5029246;28;20025;-70
2022/06/29 06:18:43;;;;;;;20.50;18.40;;;;;;;17.45;75.43;101355.00;5027301;28;20022;-70
2022/06/29 06:21:08;;;;;;;22.42;19.55;;;;;;;17.48;78.09;101359.19;5026628;28;20026;-70
2022/06/29 06:23:33;;;;;;;21.30;19.10;;;;;;;17.56;77.31;101355.94;5026961;28;20037;-71
2022/06/29 06:25:58;;;;;;;22.60;19.42;;;;;;;17.61;77.49;101364.31;5035903;28;20366;-71
2022/06/29 06:28:24;;;;;;;20.08;17.98;;;;;;;17.69;74.37;101366.59;5047618;28;20021;-71
2022/06/29 06:30:49;;;;;;;20.80;18.63;;;;;;;17.79;76.22;101357.50;5046326;28;20029;-70
2022/06/29 06:33:14;;;;;;;22.27;17.85;;;;;;;17.81;77.67;101352.53;5046582;28;20056;-70
2022/06/29 06:35:40;;;;;;;20.58;18.58;;;;;;;17.89;76.32;101352.03;5046420;28;20029;-70
2022/06/29 06:38:05;;;;;;;21.13;18.50;;;;;;;17.95;76.10;101356.53;5046547;28;20087;-70
2022/06/29 06:43:15;;;;;;;20.15;18.02;;;;;;;18.09;76.64;101352.16;5046464;28;20043;-71
2022/06/29 06:45:42;;;;;;;20.35;18.33;;;;;;;18.21;74.87;101351.13;5046737;28;20021;-71
2022/06/29 06:48:07;;;;;;;20.20;18.10;;;;;;;18.27;74.21;101350.06;5046897;28;20478;-71
2022/06/29 06:50:33;;;;;;;20.60;18.25;;;;;;;18.34;75.02;101339.50;5045330;28;20036;-71
2022/06/29 06:52:58;;;;;;;19.35;17.45;;;;;;;18.46;75.46;101350.44;5046316;28;20114;-72
2022/06/29 06:55:23;;;;;;;20.65;18.45;;;;;;;18.54;74.77;101353.50;5046358;28;20025;-71
2022/06/29 06:57:49;;;;;;;19.75;17.67;;;;;;;18.60;74.11;101352.44;5032659;28;20041;-71
2022/06/29 07:00:14;;;;;;;20.40;17.92;;;;;;;18.76;75.28;101352.53;5026103;28;20398;-72
2022/06/29 07:02:40;;;;;;;20.45;16.73;;;;;;;18.86;73.88;101356.19;5041393;28;20045;-71
2022/06/29 07:05:06;;;;;;;21.20;17.27;;;;;;;18.96;74.09;101346.16;5036970;28;20030;-72
2022/06/29 07:07:31;;;;;;;20.60;18.60;;;;;;;19.07;73.81;101351.50;5038536;28;20040;-72
2022/06/29 07:09:56;;;;;;;21.63;19.13;;;;;;;19.19;73.11;101356.81;5038113;28;20427;-71
2022/06/29 07:12:22;;;;;;;20.35;18.35;;;;;;;19.31;69.74;101357.41;5046500;28;20072;-71
2022/06/29 07:14:47;;;;;;;19.75;17.92;;;;;;;19.38;74.02;101348.75;5045438;28;20573;-71
2022/06/29 07:17:12;;;;;;;20.00;17.90;;;;;;;19.44;70.67;101353.22;5045429;28;20033;-71
2022/06/29 07:19:38;;;;;;;20.63;18.58;;;;;;;19.38;72.69;101348.75;5045926;28;20036;-71
2022/06/29 07:22:03;;;;;;;22.48;20.05;;;;;;;19.38;69.95;101357.94;5044478;28;20028;-71
2022/06/29 07:24:28;;;;;;;21.38;19.25;;;;;;;19.41;71.34;101354.63;5046016;28;20048;-70
2022/06/29 07:26:56;;;;;;;21.58;19.35;;;;;;;19.46;72.63;101359.31;5045525;28;20031;-70
2022/06/29 07:29:21;;;;;;;21.90;19.80;;;;;;;19.53;71.16;101356.28;5045926;28;20075;-70
2022/06/29 07:31:47;;;;;;;21.40;18.98;;;;;;;19.61;71.00;101351.00;5045201;28;20064;-70
2022/06/29 07:34:12;;;;;;;22.60;20.48;;;;;;;19.71;72.60;101347.38;5046046;28;20067;-71
2022/06/29 07:36:38;;;;;;;23.75;21.45;;;;;;;19.76;69.92;101352.13;5045434;28;20074;-71
2022/06/29 07:39:03;;;;;;;24.58;22.13;;;;;;;19.76;72.04;101352.13;5044842;28;20071;-71
2022/06/29 07:41:28;;;;;;;23.88;21.55;;;;;;;19.72;72.06;101356.56;5045684;28;20043;-70
2022/06/29 07:43:53;;;;;;;22.75;20.45;;;;;;;19.68;72.51;101354.38;5045226;28;20021;-70
2022/06/29 07:46:20;;;;;;;22.58;19.92;;;;;;;19.80;72.89;101351.28;5045140;28;20092;-71
2022/06/29 07:48:45;;;;;;;22.17;19.95;;;;;;;19.99;70.95;101340.38;5045017;28;20021;-70
2022/06/29 07:51:10;;;;;;;23.92;19.80;;;;;;;20.12;70.29;101338.94;5045017;28;20095;-71
2022/06/29 07:53:36;;;;;;;17.98;16.00;;;;;;;20.28;65.85;101334.19;5045816;28;20079;-71
2022/06/29 07:56:01;;;;;;;21.50;16.80;;;;;;;20.39;69.42;101346.97;5045192;28;20104;-71
2022/06/29 07:58:27;;;;;;;16.58;14.88;;;;;;;20.53;69.66;101341.63;5045189;28;20104;-71
2022/06/29 08:00:53;;;;;;;15.10;13.55;;;;;;;20.71;66.07;101333.47;5043995;28;20033;-71
2022/06/29 08:03:19;;;;;;;13.95;11.35;;;;;;;20.88;63.91;101343.41;5044982;28;20049;-71
2022/06/29 08:05:45;;;;;;;13.27;10.82;;;;;;;21.06;67.42;101331.59;5042711;28;20037;-71
2022/06/29 08:08:11;;;;;;;12.23;7.68;;;;;;;21.23;65.16;101328.38;5045339;28;20021;-72
2022/06/29 08:10:36;;;;;;;14.18;8.02;;;;;;;21.39;62.55;101327.19;5038838;28;20041;-72
2022/06/29 08:13:02;;;;;;;11.82;6.75;;;;;;;21.58;57.57;101324.50;5028205;28;20474;-73
2022/06/29 08:15:28;;;;;;;9.32;6.80;;;;;;;21.67;59.37;101331.13;5032565;28;20537;-73
2022/06/29 08:17:53;;;;;;;10.48;6.32;;;;;;;21.77;61.48;101327.41;5044200;28;20040;-73
2022/06/29 08:20:20;;;;;;;12.30;6.35;;;;;;;21.88;59.85;101328.16;5039362;28;20032;-72
2022/06/29 08:22:45;;;;;;;8.65;5.50;;;;;;;22.03;57.10;101325.19;5037722;28;20055;-73
2022/06/29 08:25:11;;;;;;;10.25;5.45;;;;;;;22.17;62.07;101331.78;5042923;28;20033;-75
2022/06/29 08:27:38;;;;;;;11.75;5.80;;;;;;;22.27;62.00;101320.47;5039894;28;20393;-73
2022/06/29 08:30:04;;;;;;;9.93;6.60;;;;;;;22.36;59.72;101319.84;5038078;28;20043;-74
2022/06/29 08:32:29;;;;;;;10.68;6.70;;;;;;;22.47;62.83;101321.38;5044177;28;20491;-72
2022/06/29 08:34:59;;;;;;;10.02;6.70;;;;;;;22.48;59.38;101318.25;5042029;28;20049;-72
2022/06/29 08:37:24;;;;;;;11.45;6.55;;;;;;;22.58;59.44;101316.47;5048774;28;20045;-73
2022/06/29 08:39:50;;;;;;;8.50;5.90;;;;;;;22.72;58.96;101314.59;5044567;28;20031;-74
2022/06/29 08:42:21;;;;;;;9.73;5.93;;;;;;;22.74;60.02;101315.13;5046659;28;20033;-73
2022/06/29 08:44:47;;;;;;;11.70;6.43;;;;;;;22.64;58.38;101315.25;5042285;28;20025;-74
2022/06/29 08:47:12;;;;;;;9.98;6.35;;;;;;;22.67;58.14;101318.31;5045484;28;20085;-72
2022/06/29 08:49:38;;;;;;;10.35;7.20;;;;;;;22.74;56.72;101313.16;5045497;28;20037;-73
2022/06/29 08:52:04;;;;;;;11.55;6.90;;;;;;;22.80;55.02;101313.91;5046942;28;20039;-72
2022/06/29 08:54:31;;;;;;;11.57;6.18;;;;;;;22.88;56.40;101312.41;5045304;28;20021;-73
2022/06/29 08:56:57;;;;;;;10.57;6.35;;;;;;;23.08;55.75;101320.53;5041935;28;20116;-71
2022/06/29 08:59:23;;;;;;;8.18;6.13;;;;;;;23.37;55.72;101308.31;5045320;28;20457;-73
2022/06/29 09:01:49;;;;;;;9.50;6.30;;;;;;;23.58;53.66;101309.66;5046293;28;20465;-72
2022/06/29 09:04:15;;;;;;;11.60;7.00;;;;;;;23.71;53.02;101308.88;5046857;28;20029;-72
2022/06/29 09:06:40;;;;;;;10.05;5.90;;;;;;;23.93;55.04;101311.00;5036265;28;20031;-72
2022/06/29 09:09:06;;;;;;;11.93;5.63;;;;;;;24.32;52.33;101312.47;5042043;28;20040;-72
2022/06/29 09:11:31;;;;;;;9.20;5.10;;;;;;;24.35;52.67;101303.44;5045601;28;20025;-72
2022/06/29 09:14:21;;;;;;;8.20;5.30;;;;;;;24.32;53.09;101318.09;5045962;28;20115;-72
2022/06/29 09:16:50;;;;;;;8.60;4.57;;;;;;;24.18;55.54;101312.50;5038920;28;20044;-72
2022/06/29 09:19:16;;;;;;;10.00;6.47;;;;;;;24.30;50.30;101321.22;5042453;28;20116;-72
2022/06/29 09:21:48;;;;;;;9.65;5.18;;;;;;;24.46;50.75;101313.34;5043350;28;20149;-72
2022/06/29 09:24:15;;;;;;;10.18;4.30;;;;;;;24.62;56.75;101311.03;5047061;28;20033;-72
2022/06/29 09:26:40;;;;;;;10.18;5.03;;;;;;;24.81;54.73;101313.69;5044646;28;20017;-72
2022/06/29 09:29:22;;;;;;;9.48;4.40;;;;;;;25.15;52.74;101318.03;5047047;28;20040;-71
2022/06/29 09:32:12;;;;;;;7.15;3.92;;;;;;;25.47;50.77;101312.13;5044866;28;20060;-72
2022/06/29 09:34:44;;;;;;;8.95;3.75;;;;;;;25.86;49.33;101313.41;5022175;28;20048;-72
2022/06/29 09:37:12;;;;;;;9.77;4.07;;;;;;;26.93;50.97;101310.31;5048436;28;20036;-72
2022/06/29 09:39:39;;;;;;;;;;;;;;;27.74;44.77;101306.81;5046980;28;20025;-70
2022/06/29 09:42:13;;;;;;;8.35;3.80;;;;;;;28.47;40.88;101306.72;5057226;28;20370;-71
2022/06/29 09:44:39;;;;;;;8.13;3.22;;;;;;;29.79;41.80;101311.84;5046817;28;20492;-72
2022/06/29 09:47:07;;;;;;;9.25;3.22;;;;;;;31.85;35.91;101308.28;5047943;28;20128;-71
2022/06/29 09:49:36;;;;;;;5.88;2.88;;;;;;;33.21;30.81;101308.78;5043242;28;20131;-70
2022/06/29 09:52:03;;;;;;;5.85;2.88;;;;;;;34.63;32.62;101316.34;5035600;28;20811;-71
2022/06/29 09:54:35;;;;;;;6.55;3.25;;;;;;;35.24;29.95;101308.66;5039658;28;20094;-70
2022/06/29 09:57:00;;;;;;;6.10;2.75;;;;;;;36.39;28.47;101302.94;5042185;28;20074;-70
2022/06/29 10:02:34;;;;;;;10.05;2.80;;;;;;;37.20;25.55;101303.88;5046728;28;20060;-70
2022/06/29 10:05:17;;;;;;;8.57;2.75;;;;;;;37.13;28.21;101302.63;5040422;28;20525;-70
2022/06/29 10:07:47;;;;;;;6.25;2.28;;;;;;;37.31;27.73;101299.00;5042841;28;20060;-70
2022/06/29 10:10:15;;;;;;;6.32;2.13;;;;;;;37.56;23.32;101297.09;5044931;28;20536;-71
2022/06/29 10:16:22;;;;;;;4.82;2.13;;;;;;;38.25;25.00;101298.84;5039676;28;20505;-69
2022/06/29 10:19:10;;;;;;;5.63;2.15;;;;;;;38.35;23.69;101297.22;5045425;28;20098;-69
2022/06/29 10:21:35;;;;;;;5.43;1.90;;;;;;;37.86;22.89;101293.88;5032561;28;20039;-70
2022/06/29 10:24:02;;;;;;;4.35;1.80;;;;;;;37.67;21.29;101297.13;5041858;28;20029;-69
2022/06/29 10:26:30;;;;;;;4.97;2.33;;;;;;;36.87;21.52;101286.53;5043237;28;20420;-70
2022/06/29 10:29:05;;;;;;;7.85;2.17;;;;;;;36.11;25.59;101290.06;5036706;28;20033;-71
2022/06/29 10:31:59;;;;;;;5.00;1.80;;;;;;;36.79;25.04;101284.03;5041429;28;20509;-69
2022/06/29 10:34:31;;;;;;;8.48;2.15;;;;;;;36.94;27.04;101284.94;5047347;28;20035;-70
2022/06/29 10:37:02;;;;;;;4.35;1.65;;;;;;;37.19;26.17;101283.03;5047943;28;20032;-70
2022/06/29 10:39:48;;;;;;;3.65;2.35;;;;;;;36.74;23.60;101279.50;5047559;28;20033;-70
2022/06/29 10:45:07;;;;;;;7.05;2.47;;;;;;;34.15;27.73;101275.19;5027254;28;20048;-69
2022/06/29 10:47:33;;;;;;;6.57;2.28;;;;;;;33.43;30.31;101258.78;5047167;28;20446;-69
2022/06/29 10:50:13;;;;;;;5.07;2.30;;;;;;;32.53;29.91;101262.50;5046917;28;20108;-69
2022/06/29 10:52:39;;;;;;;7.40;3.00;;;;;;;31.53;31.97;101264.78;5047958;28;20036;-69
2022/06/29 10:55:05;;;;;;;6.72;2.42;;;;;;;30.93;34.14;101252.47;5046962;28;20448;-69
2022/06/29 10:57:35;;;;;;;7.38;2.60;;;;;;;30.58;32.25;101253.00;5045346;28;20036;-69
2022/06/29 11:00:05;;;;;;;4.72;2.45;;;;;;;30.04;33.54;101253.22;5036952;28;20060;-69
2022/06/29 11:02:31;;;;;;;6.10;2.63;;;;;;;30.20;35.18;101248.53;5047166;28;20049;-69
2022/06/29 11:04:57;;;;;;;6.78;2.10;;;;;;;29.99;33.40;101237.28;5044780;28;20064;-68
2022/06/29 11:12:53;;;;;;;6.40;2.50;;;;;;;29.42;34.58;101246.59;5045880;28;20047;-69
2022/06/29 11:15:45;;;;;;;7.93;2.70;;;;;;;29.18;37.33;101246.50;5042551;28;20029;-69
2022/06/29 11:18:29;;;;;;;6.22;2.80;;;;;;;29.11;33.45;101241.41;5044482;28;20065;-69
2022/06/29 11:21:02;;;;;;;5.88;2.75;;;;;;;29.61;35.55;101248.09;5041719;28;20028;-68
2022/06/29 11:23:28;;;;;;;7.47;2.83;;;;;;;29.75;36.84;101248.59;5045832;28;20013;-68
2022/06/29 11:25:57;;;;;;;8.43;3.10;;;;;;;29.35;35.52;101235.03;5046794;28;20017;-69
2022/06/29 11:28:25;;;;;;;9.52;3.65;;;;;;;28.85;38.41;101235.97;5043346;28;20040;-70
2022/06/29 11:31:11;;;;;;;16.83;4.28;;;;;;;28.68;41.11;101233.25;5045829;28;20029;-70
2022/06/29 11:33:41;;;;;;;7.35;3.50;;;;;;;28.40;40.68;101239.44;5042184;28;20043;-69